createdAt,value
2024-05-09T00:00:43.840Z,16.92
2024-05-09T00:03:12.373Z,16.91
2024-05-09T00:05:44.458Z,16.92
2024-05-09T00:08:12.627Z,16.90
2024-05-09T00:10:41.032Z,16.90
2024-05-09T00:13:11.131Z,16.90
2024-05-09T00:15:39.203Z,16.87
2024-05-09T00:18:07.804Z,16.91
2024-05-09T00:20:39.480Z,16.88
2024-05-09T00:23:13.903Z,16.87
2024-05-09T00:25:45.126Z,16.85
2024-05-09T00:28:13.174Z,16.83
2024-05-09T00:30:40.945Z,16.82
2024-05-09T00:33:10.239Z,16.79
2024-05-09T00:35:39.178Z,16.75
2024-05-09T00:38:06.845Z,16.77
2024-05-09T00:40:42.003Z,16.77
2024-05-09T00:43:14.778Z,16.76
2024-05-09T00:45:43.666Z,16.76
2024-05-09T00:48:15.176Z,16.75
2024-05-09T00:50:46.174Z,16.78
2024-05-09T00:53:15.923Z,16.78
2024-05-09T00:55:44.340Z,16.79
2024-05-09T00:58:14.496Z,16.76
2024-05-09T01:00:42.152Z,16.71
2024-05-09T01:03:12.367Z,16.67
2024-05-09T01:05:43.539Z,16.60
2024-05-09T01:08:11.945Z,16.52
2024-05-09T01:10:42.576Z,16.42
2024-05-09T01:13:12.525Z,16.28
2024-05-09T01:15:40.113Z,16.23
2024-05-09T01:18:11.023Z,16.14
2024-05-09T01:20:42.864Z,15.98
2024-05-09T01:23:14.661Z,15.71
2024-05-09T01:25:47.106Z,15.55
2024-05-09T01:28:16.597Z,15.35
2024-05-09T01:30:44.125Z,15.23
2024-05-09T01:33:12.631Z,15.13
2024-05-09T01:35:42.302Z,14.97
2024-05-09T01:38:17.439Z,14.89
2024-05-09T01:40:45.642Z,14.73
2024-05-09T01:43:13.149Z,14.56
2024-05-09T01:45:41.487Z,14.37
2024-05-09T01:48:10.759Z,14.28
2024-05-09T01:50:41.725Z,14.26
2024-05-09T01:53:11.850Z,14.23
2024-05-09T01:55:39.655Z,14.09
2024-05-09T01:58:07.693Z,14.04
2024-05-09T02:00:40.288Z,13.93
2024-05-09T02:03:14.599Z,13.84
2024-05-09T02:05:50.180Z,13.77
2024-05-09T02:08:18.671Z,13.77
2024-05-09T02:10:48.209Z,13.74
2024-05-09T02:13:16.810Z,13.74
2024-05-09T02:15:44.629Z,13.71
2024-05-09T02:18:13.021Z,13.65
2024-05-09T02:20:42.188Z,13.61
2024-05-09T02:23:10.461Z,13.61
2024-05-09T02:25:38.196Z,13.59
2024-05-09T02:28:06.300Z,13.51
2024-05-09T02:30:39.655Z,13.46
2024-05-09T02:33:14.001Z,13.40
2024-05-09T02:35:43.620Z,13.35
2024-05-09T02:38:12.526Z,13.36
2024-05-09T02:40:40.718Z,13.40
2024-05-09T02:43:10.769Z,13.43
2024-05-09T02:45:39.929Z,13.41
2024-05-09T02:48:11.550Z,13.39
2024-05-09T02:50:44.734Z,13.38
2024-05-09T02:53:13.308Z,13.43
2024-05-09T02:55:42.034Z,13.50
2024-05-09T02:58:10.284Z,13.56
2024-05-09T03:00:41.295Z,13.63
2024-05-09T03:03:13.280Z,13.66
2024-05-09T03:05:43.928Z,13.71
2024-05-09T03:08:11.917Z,13.75
2024-05-09T03:10:40.034Z,13.74
2024-05-09T03:13:15.178Z,13.81
2024-05-09T03:15:44.941Z,13.80
2024-05-09T03:18:12.963Z,13.72
2024-05-09T03:20:40.886Z,13.73
2024-05-09T03:23:09.845Z,13.73
2024-05-09T03:25:40.061Z,13.67
2024-05-09T03:28:07.667Z,13.69
2024-05-09T03:30:40.442Z,13.74
2024-05-09T03:33:20.780Z,13.84
2024-05-09T03:35:49.453Z,13.92
2024-05-09T03:38:17.368Z,13.97
2024-05-09T03:40:50.211Z,13.93
2024-05-09T03:43:19.673Z,13.92
2024-05-09T03:45:49.679Z,13.91
2024-05-09T03:48:17.582Z,13.86
2024-05-09T03:50:45.676Z,13.81
2024-05-09T03:53:14.843Z,13.75
2024-05-09T03:55:43.430Z,13.76
2024-05-09T03:58:13.176Z,13.80
2024-05-09T04:00:42.363Z,13.81
2024-05-09T04:03:12.057Z,13.86
2024-05-09T04:05:42.636Z,13.85
2024-05-09T04:08:13.399Z,13.75
2024-05-09T04:10:41.399Z,13.74
2024-05-09T04:13:10.148Z,13.71
2024-05-09T04:15:37.571Z,13.70
2024-05-09T04:18:05.403Z,13.65
2024-05-09T04:20:38.333Z,13.68
2024-05-09T04:23:11.632Z,13.75
2024-05-09T04:25:42.111Z,13.78
2024-05-09T04:28:10.002Z,13.81
2024-05-09T04:30:40.284Z,13.83
2024-05-09T04:33:12.289Z,13.83
2024-05-09T04:35:43.204Z,13.83
2024-05-09T04:38:11.510Z,13.80
2024-05-09T04:40:39.117Z,13.77
2024-05-09T04:43:07.437Z,13.74
2024-05-09T04:45:35.722Z,13.75
2024-05-09T04:48:03.774Z,13.78
2024-05-09T04:50:36.917Z,13.78
2024-05-09T04:53:11.210Z,13.83
2024-05-09T04:55:40.576Z,13.80
2024-05-09T04:58:14.241Z,13.76
2024-05-09T05:00:43.436Z,13.76
2024-05-09T05:03:14.541Z,13.85
2024-05-09T05:05:45.206Z,13.93
2024-05-09T05:08:14.336Z,13.95
2024-05-09T05:10:43.100Z,14.00
2024-05-09T05:13:20.805Z,14.13
2024-05-09T05:15:52.264Z,14.22
2024-05-09T05:18:20.122Z,14.26
2024-05-09T05:20:48.143Z,14.25
2024-05-09T05:23:19.710Z,14.25
2024-05-09T05:25:48.757Z,14.22
2024-05-09T05:28:17.083Z,14.21
2024-05-09T05:30:45.204Z,14.22
2024-05-09T05:33:14.950Z,14.24
2024-05-09T05:35:43.020Z,14.30
2024-05-09T05:38:11.327Z,14.35
2024-05-09T05:40:40.385Z,14.38
2024-05-09T05:43:10.784Z,14.40
2024-05-09T05:45:39.406Z,14.47
2024-05-09T05:48:08.790Z,14.51
2024-05-09T05:50:38.251Z,14.58
2024-05-09T05:53:08.115Z,14.64
2024-05-09T05:55:40.288Z,14.74
2024-05-09T05:58:12.119Z,14.75
2024-05-09T06:00:41.696Z,14.78
2024-05-09T06:03:11.011Z,14.86
2024-05-09T06:05:44.129Z,14.95
2024-05-09T06:08:12.144Z,15.05
2024-05-09T06:10:41.166Z,15.06
2024-05-09T06:13:11.712Z,15.23
2024-05-09T06:15:40.823Z,15.35
2024-05-09T06:18:10.892Z,15.45
2024-05-09T06:20:43.256Z,15.56
2024-05-09T06:23:13.127Z,15.61
2024-05-09T06:25:40.887Z,15.62
2024-05-09T06:28:08.378Z,15.65
2024-05-09T06:30:42.332Z,15.72
2024-05-09T06:33:14.184Z,15.73
2024-05-09T06:35:44.357Z,15.69
2024-05-09T06:38:12.475Z,15.67
2024-05-09T06:40:42.517Z,15.69
2024-05-09T06:43:16.764Z,15.69
2024-05-09T06:45:50.384Z,15.74
2024-05-09T06:48:19.788Z,15.76
2024-05-09T06:50:48.507Z,15.84
2024-05-09T06:53:17.209Z,15.91
2024-05-09T06:55:44.869Z,15.95
2024-05-09T06:58:12.612Z,16.04
2024-05-09T07:00:41.751Z,16.08
2024-05-09T07:03:12.460Z,16.16
2024-05-09T07:05:41.799Z,16.21
2024-05-09T07:08:09.582Z,16.25
2024-05-09T07:10:37.581Z,16.32
2024-05-09T07:13:12.666Z,16.37
2024-05-09T07:15:41.458Z,16.45
2024-05-09T07:18:13.147Z,16.44
2024-05-09T07:20:42.801Z,16.51
2024-05-09T07:23:11.422Z,16.61
2024-05-09T07:25:40.925Z,16.65
2024-05-09T07:28:19.377Z,16.71
2024-05-09T07:30:47.268Z,16.61
2024-05-09T07:33:23.259Z,16.58
2024-05-09T07:35:52.249Z,16.61
2024-05-09T07:38:20.255Z,16.63
2024-05-09T07:40:47.784Z,16.63
2024-05-09T07:43:16.359Z,16.58
2024-05-09T07:45:51.880Z,16.52
2024-05-09T07:52:39.147Z,16.52
2024-05-09T07:53:47.805Z,16.52
2024-05-09T07:56:19.913Z,16.52
2024-05-09T07:58:51.120Z,16.49
2024-05-09T08:01:19.144Z,16.38
2024-05-09T08:03:49.531Z,16.36
2024-05-09T08:06:17.192Z,16.30
2024-05-09T08:08:46.767Z,16.23
2024-05-09T08:11:14.290Z,16.20
2024-05-09T08:13:41.941Z,16.15
2024-05-09T08:16:09.521Z,16.10
2024-05-09T08:18:37.318Z,16.13
2024-05-09T08:21:05.172Z,16.23
2024-05-09T08:23:32.681Z,16.38
2024-05-09T08:26:00.063Z,16.51
2024-05-09T08:28:28.098Z,16.70
2024-05-09T08:30:57.170Z,16.91
2024-05-09T08:33:24.795Z,17.09
2024-05-09T08:35:54.215Z,17.28
2024-05-09T08:38:21.592Z,17.49
2024-05-09T08:40:49.677Z,17.81
2024-05-09T08:43:20.304Z,18.18
2024-05-09T08:45:49.832Z,18.39
2024-05-09T08:48:19.920Z,18.85
2024-05-09T08:50:50.632Z,19.27
2024-05-09T08:53:19.042Z,19.42
2024-05-09T08:55:47.345Z,19.29
2024-05-09T08:58:19.923Z,18.96
2024-05-09T09:00:48.209Z,18.85
2024-05-09T09:03:19.377Z,18.63
2024-05-09T09:05:58.764Z,18.53
2024-05-09T09:08:26.801Z,18.43
2024-05-09T09:10:59.311Z,18.27
2024-05-09T09:13:28.161Z,18.22
2024-05-09T09:16:03.255Z,18.02
2024-05-09T09:18:31.174Z,18.12
2024-05-09T09:20:58.854Z,18.02
2024-05-09T09:23:30.442Z,18.03
2024-05-09T09:26:01.923Z,18.19
2024-05-09T09:28:30.155Z,18.24
2024-05-09T09:31:05.049Z,18.26
2024-05-09T09:33:33.390Z,18.33
2024-05-09T09:36:03.866Z,18.54
2024-05-09T09:38:32.745Z,18.59
2024-05-09T09:41:04.749Z,18.52
2024-05-09T09:43:33.240Z,18.59
2024-05-09T09:46:02.896Z,18.57
2024-05-09T09:48:32.529Z,18.50
2024-05-09T09:51:01.170Z,18.51
2024-05-09T09:53:29.399Z,18.46
2024-05-09T09:55:58.237Z,18.28
2024-05-09T09:58:25.997Z,18.26
2024-05-09T10:00:53.709Z,18.31
2024-05-09T10:03:21.558Z,18.43
2024-05-09T10:05:50.104Z,18.59
2024-05-09T10:08:19.282Z,18.79
2024-05-09T10:10:48.090Z,18.98
2024-05-09T10:13:16.312Z,19.19
2024-05-09T10:15:51.538Z,19.31
2024-05-09T10:18:34.272Z,19.35
2024-05-09T10:21:02.000Z,19.45
2024-05-09T10:23:34.764Z,19.42
2024-05-09T10:26:05.726Z,19.39
2024-05-09T10:28:36.192Z,19.33
2024-05-09T10:31:15.496Z,19.27
2024-05-09T10:33:49.544Z,19.31
2024-05-09T10:36:25.427Z,19.31
2024-05-09T10:38:54.493Z,19.40
2024-05-09T10:41:23.266Z,19.46
2024-05-09T10:43:51.924Z,19.59
2024-05-09T10:46:20.155Z,19.65
2024-05-09T10:48:49.917Z,19.71
2024-05-09T10:51:21.813Z,19.82
2024-05-09T10:53:49.456Z,19.74
2024-05-09T10:56:17.518Z,19.66
2024-05-09T10:58:49.440Z,19.58
2024-05-09T11:01:17.274Z,19.53
2024-05-09T11:03:49.265Z,19.57
2024-05-09T11:06:18.100Z,19.52
2024-05-09T11:08:47.185Z,19.31
2024-05-09T11:11:15.543Z,19.24
2024-05-09T11:13:43.324Z,19.17
2024-05-09T11:16:21.552Z,19.15
2024-05-09T11:18:57.226Z,19.17
2024-05-09T11:21:25.367Z,19.20
2024-05-09T11:23:53.021Z,19.33
2024-05-09T11:26:22.448Z,19.49
2024-05-09T11:28:51.015Z,19.68
2024-05-09T11:31:19.177Z,19.89
2024-05-09T11:33:47.353Z,20.14
2024-05-09T11:36:15.280Z,20.21
2024-05-09T11:38:43.318Z,20.19
2024-05-09T11:41:17.771Z,20.29
2024-05-09T11:43:45.208Z,20.23
2024-05-09T11:46:12.807Z,20.02
2024-05-09T11:48:40.802Z,20.15
2024-05-09T11:51:08.438Z,20.13
2024-05-09T11:53:35.827Z,20.18
2024-05-09T11:56:03.516Z,20.32
2024-05-09T11:58:34.962Z,20.38
2024-05-09T12:01:02.763Z,20.38
2024-05-09T12:03:30.524Z,20.19
2024-05-09T12:05:58.370Z,19.99
2024-05-09T12:08:26.168Z,20.00
2024-05-09T12:10:54.089Z,20.08
2024-05-09T12:13:23.379Z,20.21
2024-05-09T12:15:51.001Z,20.09
2024-05-09T12:18:18.653Z,20.29
2024-05-09T12:20:46.284Z,20.27
2024-05-09T12:23:13.888Z,20.18
2024-05-09T12:25:43.027Z,20.19
2024-05-09T12:28:10.678Z,20.20
2024-05-09T12:30:40.487Z,19.91
2024-05-09T12:33:11.866Z,19.80
2024-05-09T12:35:41.769Z,19.37
2024-05-09T12:38:10.524Z,18.68
2024-05-09T12:40:39.220Z,18.09
2024-05-09T12:43:08.873Z,17.90
2024-05-09T12:45:38.461Z,17.80
2024-05-09T12:48:08.775Z,17.75
2024-05-09T12:50:40.027Z,17.88
2024-05-09T12:53:07.858Z,18.15
2024-05-09T12:55:44.037Z,18.39
2024-05-09T12:58:20.229Z,18.81
2024-05-09T13:00:47.885Z,19.13
2024-05-09T13:03:15.670Z,19.37
2024-05-09T13:05:45.371Z,19.61
2024-05-09T13:08:14.154Z,19.71
2024-05-09T13:10:41.791Z,19.83
2024-05-09T13:13:10.542Z,19.96
2024-05-09T13:15:38.226Z,20.00
2024-05-09T13:18:07.086Z,20.01
2024-05-09T13:20:36.658Z,19.88
2024-05-09T13:23:07.364Z,19.76
2024-05-09T13:25:36.448Z,19.67
2024-05-09T13:28:04.918Z,19.63
2024-05-09T13:30:40.046Z,19.72
2024-05-09T13:33:11.678Z,19.61
2024-05-09T13:35:46.927Z,19.69
2024-05-09T13:38:21.083Z,19.64
2024-05-09T13:40:49.604Z,19.72
2024-05-09T13:43:18.189Z,19.88
2024-05-09T13:45:46.249Z,20.04
2024-05-09T13:48:13.905Z,19.99
2024-05-09T13:50:41.999Z,19.99
2024-05-09T13:53:09.431Z,19.84
2024-05-09T13:55:40.496Z,19.75
2024-05-09T13:58:09.314Z,19.85
2024-05-09T14:00:45.958Z,20.03
2024-05-09T14:03:18.922Z,20.03
2024-05-09T14:05:48.255Z,19.97
2024-05-09T14:08:20.620Z,20.03
2024-05-09T14:10:49.312Z,19.88
2024-05-09T14:13:17.273Z,19.71
2024-05-09T14:15:46.353Z,19.33
2024-05-09T14:18:14.587Z,18.89
2024-05-09T14:20:43.283Z,18.38
2024-05-09T14:23:11.158Z,17.94
2024-05-09T14:25:42.742Z,17.63
2024-05-09T14:28:12.949Z,17.14
2024-05-09T14:30:42.192Z,16.89
2024-05-09T14:33:10.627Z,16.67
2024-05-09T14:35:39.056Z,16.43
2024-05-09T14:38:08.043Z,16.37
2024-05-09T14:40:41.896Z,16.38
2024-05-09T14:43:15.579Z,16.41
2024-05-09T14:45:44.515Z,16.44
2024-05-09T14:48:15.831Z,16.48
2024-05-09T14:50:45.437Z,16.61
2024-05-09T14:53:13.891Z,16.72
2024-05-09T14:55:43.754Z,16.79
2024-05-09T14:58:13.473Z,16.96
2024-05-09T15:00:46.844Z,17.13
2024-05-09T15:03:19.382Z,17.24
2024-05-09T15:05:48.097Z,17.33
2024-05-09T15:08:18.983Z,17.40
2024-05-09T15:10:47.344Z,17.35
2024-05-09T15:13:16.860Z,17.51
2024-05-09T15:15:45.174Z,17.62
2024-05-09T15:18:14.267Z,17.73
2024-05-09T15:20:43.751Z,17.72
2024-05-09T15:23:11.479Z,17.69
2024-05-09T15:25:39.034Z,17.63
2024-05-09T15:28:10.128Z,17.53
2024-05-09T15:30:37.928Z,17.58
2024-05-09T15:33:07.166Z,17.67
2024-05-09T15:35:36.210Z,17.73
2024-05-09T15:38:04.631Z,17.76
2024-05-09T15:40:38.988Z,17.75
2024-05-09T15:43:10.575Z,17.70
2024-05-09T15:45:40.283Z,17.75
2024-05-09T15:48:10.105Z,17.81
2024-05-09T15:50:41.030Z,17.86
2024-05-09T15:53:12.195Z,17.83
2024-05-09T15:55:40.817Z,17.84
2024-05-09T15:58:08.970Z,17.80
2024-05-09T16:00:40.314Z,17.89
2024-05-09T16:03:12.213Z,17.98
2024-05-09T16:05:41.664Z,18.04
2024-05-09T16:08:09.656Z,18.11
2024-05-09T16:10:43.549Z,18.08
2024-05-09T16:13:12.886Z,18.16
2024-05-09T16:15:40.648Z,18.21
2024-05-09T16:18:08.619Z,18.32
2024-05-09T16:20:40.228Z,18.30
2024-05-09T16:23:10.533Z,18.30
2024-05-09T16:25:38.314Z,18.33
2024-05-09T16:28:09.757Z,18.31
2024-05-09T16:30:39.924Z,18.38
2024-05-09T16:33:08.756Z,18.41
2024-05-09T16:35:37.843Z,18.39
2024-05-09T16:38:06.305Z,18.24
2024-05-09T16:40:38.623Z,18.13
2024-05-09T16:43:10.432Z,17.91
2024-05-09T16:45:41.422Z,17.78
2024-05-09T16:48:09.693Z,17.65
2024-05-09T16:50:37.558Z,17.61
2024-05-09T16:53:06.697Z,17.57
2024-05-09T16:55:37.709Z,17.56
2024-05-09T16:58:08.342Z,17.51
2024-05-09T17:00:41.376Z,17.52
2024-05-09T17:03:14.305Z,17.49
2024-05-09T17:05:43.361Z,17.42
2024-05-09T17:08:11.191Z,17.40
2024-05-09T17:10:38.778Z,17.41
2024-05-09T17:13:08.053Z,17.35
2024-05-09T17:15:37.444Z,17.31
2024-05-09T17:18:07.522Z,17.31
2024-05-09T17:20:37.484Z,17.27
2024-05-09T17:23:15.495Z,17.30
2024-05-09T17:25:44.109Z,17.24
2024-05-09T17:28:12.233Z,17.27
2024-05-09T17:30:42.075Z,17.30
2024-05-09T17:33:11.320Z,17.30
2024-05-09T17:35:40.499Z,17.32
2024-05-09T17:38:08.249Z,17.29
2024-05-09T17:40:37.796Z,17.32
2024-05-09T17:43:09.026Z,17.32
2024-05-09T17:45:40.069Z,17.32
2024-05-09T17:48:10.522Z,17.33
2024-05-09T17:50:39.591Z,17.36
2024-05-09T17:53:07.308Z,17.29
2024-05-09T17:55:35.641Z,17.19
2024-05-09T17:58:05.523Z,17.10
2024-05-09T18:00:39.312Z,16.97
2024-05-09T18:03:14.202Z,16.86
2024-05-09T18:05:43.655Z,16.55
2024-05-09T18:08:12.274Z,16.22
2024-05-09T18:10:43.231Z,16.05
2024-05-09T18:13:12.494Z,15.86
2024-05-09T18:15:40.795Z,15.75
2024-05-09T18:18:09.462Z,15.65
2024-05-09T18:20:43.140Z,15.59
2024-05-09T18:23:15.958Z,15.55
2024-05-09T18:25:45.230Z,15.57
2024-05-09T18:28:12.866Z,15.58
2024-05-09T18:30:41.443Z,15.57
2024-05-09T18:33:12.698Z,15.53
2024-05-09T18:35:44.776Z,15.52
2024-05-09T18:38:12.446Z,15.54
2024-05-09T18:40:41.997Z,15.59
2024-05-09T18:43:11.442Z,15.59
2024-05-09T18:45:39.661Z,15.64
2024-05-09T18:48:10.255Z,15.68
2024-05-09T18:50:40.817Z,15.69
2024-05-09T18:53:11.753Z,15.67
2024-05-09T18:55:40.866Z,15.69
2024-05-09T18:58:08.440Z,15.61
2024-05-09T19:00:39.189Z,15.65
2024-05-09T19:03:12.375Z,15.67
2024-05-09T19:05:45.905Z,15.71
2024-05-09T19:08:15.336Z,15.74
2024-05-09T19:10:43.708Z,15.78
2024-05-09T19:13:13.527Z,15.79
2024-05-09T19:15:43.140Z,15.79
2024-05-09T19:18:13.380Z,15.79
2024-05-09T19:20:41.848Z,15.80
2024-05-09T19:23:11.054Z,15.74
2024-05-09T19:25:38.511Z,15.77
2024-05-09T19:28:06.562Z,15.77
2024-05-09T19:30:39.664Z,15.81
2024-05-09T19:33:12.729Z,15.81
2024-05-09T19:35:41.778Z,15.85
2024-05-09T19:38:09.448Z,15.89
2024-05-09T19:40:37.089Z,15.90
2024-05-09T19:43:05.961Z,15.88
2024-05-09T19:45:35.608Z,15.90
2024-05-09T19:48:05.165Z,15.97
2024-05-09T19:50:41.743Z,15.98
2024-05-09T19:53:13.525Z,16.01
2024-05-09T19:55:41.564Z,16.04
2024-05-09T19:58:12.007Z,16.11
2024-05-09T20:00:42.948Z,16.13
2024-05-09T20:03:15.521Z,16.14
2024-05-09T20:05:47.431Z,16.14
2024-05-09T20:08:16.738Z,16.16
2024-05-09T20:10:45.745Z,16.18
2024-05-09T20:13:14.378Z,16.21
2024-05-09T20:15:42.077Z,16.22
2024-05-09T20:18:09.721Z,16.26
2024-05-09T20:20:41.471Z,16.28
2024-05-09T20:23:12.736Z,16.27
2024-05-09T20:25:40.854Z,16.25
2024-05-09T20:28:08.799Z,16.25
2024-05-09T20:30:36.875Z,16.26
2024-05-09T20:33:09.761Z,16.27
2024-05-09T20:35:37.886Z,16.30
2024-05-09T20:38:05.908Z,16.28
2024-05-09T20:40:37.852Z,16.30
2024-05-09T20:43:08.541Z,16.30
2024-05-09T20:45:36.776Z,16.30
2024-05-09T20:48:04.866Z,16.29
2024-05-09T20:50:38.731Z,16.32
2024-05-09T20:53:11.274Z,16.33
2024-05-09T20:55:40.009Z,16.32
2024-05-09T20:58:07.580Z,16.36
2024-05-09T21:00:40.060Z,16.38
2024-05-09T21:03:11.806Z,16.44
2024-05-09T21:05:40.245Z,16.38
2024-05-09T21:08:09.286Z,16.36
2024-05-09T21:10:37.851Z,16.35
2024-05-09T21:13:07.607Z,16.34
2024-05-09T21:15:37.732Z,16.40
2024-05-09T21:18:05.620Z,16.45
2024-05-09T21:20:35.354Z,16.39
2024-05-09T21:23:03.686Z,16.33
2024-05-09T21:25:32.203Z,16.30
2024-05-09T21:28:00.779Z,16.24
2024-05-09T21:30:38.368Z,16.20
2024-05-09T21:33:11.050Z,16.14
2024-05-09T21:35:40.632Z,16.10
2024-05-09T21:38:08.370Z,16.08
2024-05-09T21:40:38.198Z,16.03
2024-05-09T21:43:09.471Z,16.00
2024-05-09T21:45:37.828Z,15.95
2024-05-09T21:48:06.768Z,15.92
2024-05-09T21:50:40.333Z,15.94
2024-05-09T21:53:11.854Z,15.90
2024-05-09T21:55:39.795Z,15.90
2024-05-09T21:58:07.251Z,15.87
2024-05-09T22:00:38.353Z,15.84
2024-05-09T22:03:10.918Z,15.82
2024-05-09T22:05:42.562Z,15.80
2024-05-09T22:08:11.156Z,15.81
2024-05-09T22:10:38.885Z,15.82
2024-05-09T22:13:08.532Z,15.82
2024-05-09T22:15:39.487Z,15.80
2024-05-09T22:18:09.389Z,15.80
2024-05-09T22:20:44.689Z,15.79
2024-05-09T22:23:13.885Z,15.77
2024-05-09T22:25:41.351Z,15.74
2024-05-09T22:28:09.148Z,15.73
2024-05-09T22:30:39.379Z,15.73
2024-05-09T22:33:10.428Z,15.72
2024-05-09T22:35:40.756Z,15.73
2024-05-09T22:38:08.839Z,15.74
2024-05-09T22:40:45.737Z,15.73
2024-05-09T22:43:21.511Z,15.73
2024-05-09T22:45:51.536Z,15.68
2024-05-09T22:48:19.439Z,15.67
2024-05-09T22:50:47.102Z,15.68
2024-05-09T22:53:14.475Z,15.64
2024-05-09T22:55:42.794Z,15.61
2024-05-09T22:58:10.282Z,15.58
2024-05-09T23:00:38.058Z,15.58
2024-05-09T23:03:06.422Z,15.60
2024-05-09T23:05:33.975Z,15.61
2024-05-09T23:08:02.877Z,15.61
2024-05-09T23:10:35.983Z,15.60
2024-05-09T23:13:07.396Z,15.63
2024-05-09T23:15:40.284Z,15.65
2024-05-09T23:18:08.475Z,15.65
2024-05-09T23:20:38.997Z,15.67
2024-05-09T23:23:09.446Z,15.67
2024-05-09T23:25:38.046Z,15.69
2024-05-09T23:28:06.227Z,15.70
2024-05-09T23:30:38.486Z,15.80
2024-05-09T23:33:13.249Z,15.78
2024-05-09T23:35:42.619Z,15.84
2024-05-09T23:38:10.046Z,15.84
2024-05-09T23:40:40.898Z,15.90
2024-05-09T23:43:12.092Z,15.94
2024-05-09T23:45:40.955Z,15.98
2024-05-09T23:48:09.248Z,16.01
2024-05-09T23:50:38.733Z,15.99
2024-05-09T23:53:09.212Z,16.05
2024-05-09T23:55:37.998Z,16.10
2024-05-09T23:58:06.610Z,16.17
